sensor_id;sensor_type;location;lat;lon;timestamp;pressure;altitude;pressure_sealevel;temperature;humidity
70971;BME280;58632;51.718;19.446;2023-03-01T00:01:50;100938.27;;;-6.37;100.00
70971;BME280;58632;51.718;19.446;2023-03-01T00:04:16;100939.28;;;-6.38;100.00
70971;BME280;58632;51.718;19.446;2023-03-01T00:06:42;100942.70;;;-6.37;100.00
70971;BME280;58632;51.718;19.446;2023-03-01T00:09:08;100940.80;;;-6.34;100.00
70971;BME280;58632;51.718;19.446;2023-03-01T00:11:33;100933.31;;;-6.28;100.00
70971;BME280;58632;51.718;19.446;2023-03-01T00:14:00;100937.39;;;-6.21;100.00
70971;BME280;58632;51.718;19.446;2023-03-01T00:16:27;100937.50;;;-6.14;100.00
70971;BME280;58632;51.718;19.446;2023-03-01T00:18:56;100942.17;;;-6.04;100.00
70971;BME280;58632;51.718;19.446;2023-03-01T00:21:22;100937.75;;;-5.99;100.00
70971;BME280;58632;51.718;19.446;2023-03-01T00:23:48;100934.34;;;-5.99;100.00
70971;BME280;58632;51.718;19.446;2023-03-01T00:26:14;100935.35;;;-5.97;100.00
70971;BME280;58632;51.718;19.446;2023-03-01T00:28:40;100936.07;;;-5.92;100.00
70971;BME280;58632;51.718;19.446;2023-03-01T00:31:10;100940.60;;;-5.87;100.00
70971;BME280;58632;51.718;19.446;2023-03-01T00:33:35;100940.53;;;-5.87;100.00
70971;BME280;58632;51.718;19.446;2023-03-01T00:36:01;100935.09;;;-5.89;100.00
70971;BME280;58632;51.718;19.446;2023-03-01T00:38:27;100929.99;;;-5.93;100.00
70971;BME280;58632;51.718;19.446;2023-03-01T00:40:53;100926.14;;;-6.04;100.00
70971;BME280;58632;51.718;19.446;2023-03-01T00:43:18;100931.83;;;-6.13;100.00
70971;BME280;58632;51.718;19.446;2023-03-01T00:45:44;100926.13;;;-6.23;100.00
70971;BME280;58632;51.718;19.446;2023-03-01T00:48:09;100918.48;;;-6.32;100.00
70971;BME280;58632;51.718;19.446;2023-03-01T00:50:35;100918.14;;;-6.43;100.00
70971;BME280;58632;51.718;19.446;2023-03-01T00:53:01;100912.19;;;-6.54;100.00
70971;BME280;58632;51.718;19.446;2023-03-01T00:55:27;100907.73;;;-6.59;100.00
70971;BME280;58632;51.718;19.446;2023-03-01T00:57:52;100909.95;;;-6.64;100.00
70971;BME280;58632;51.718;19.446;2023-03-01T01:00:18;100914.70;;;-6.69;100.00
70971;BME280;58632;51.718;19.446;2023-03-01T01:02:44;100918.71;;;-6.70;100.00
70971;BME280;58632;51.718;19.446;2023-03-01T01:05:10;100920.25;;;-6.67;100.00
70971;BME280;58632;51.718;19.446;2023-03-01T01:07:36;100928.17;;;-6.60;100.00
70971;BME280;58632;51.718;19.446;2023-03-01T01:10:02;100928.66;;;-6.55;100.00
70971;BME280;58632;51.718;19.446;2023-03-01T01:12:27;100921.20;;;-6.52;100.00
70971;BME280;58632;51.718;19.446;2023-03-01T01:14:53;100920.96;;;-6.52;100.00
70971;BME280;58632;51.718;19.446;2023-03-01T01:17:18;100922.19;;;-6.44;100.00
70971;BME280;58632;51.718;19.446;2023-03-01T01:19:44;100924.89;;;-6.35;100.00
70971;BME280;58632;51.718;19.446;2023-03-01T01:22:10;100924.61;;;-6.26;100.00
70971;BME280;58632;51.718;19.446;2023-03-01T01:24:35;100921.55;;;-6.20;100.00
70971;BME280;58632;51.718;19.446;2023-03-01T01:27:01;100915.00;;;-6.15;100.00
70971;BME280;58632;51.718;19.446;2023-03-01T01:29:26;100911.34;;;-6.13;100.00
70971;BME280;58632;51.718;19.446;2023-03-01T01:31:52;100909.39;;;-6.11;100.00
70971;BME280;58632;51.718;19.446;2023-03-01T01:34:18;100900.96;;;-6.12;100.00
70971;BME280;58632;51.718;19.446;2023-03-01T01:36:47;100904.95;;;-6.14;100.00
70971;BME280;58632;51.718;19.446;2023-03-01T01:39:13;100905.46;;;-6.20;100.00
70971;BME280;58632;51.718;19.446;2023-03-01T01:41:39;100908.18;;;-6.31;100.00
70971;BME280;58632;51.718;19.446;2023-03-01T01:44:17;100903.98;;;-6.44;100.00
70971;BME280;58632;51.718;19.446;2023-03-01T01:46:52;100900.89;;;-6.53;100.00
70971;BME280;58632;51.718;19.446;2023-03-01T01:51:47;100892.14;;;-6.74;100.00
70971;BME280;58632;51.718;19.446;2023-03-01T01:54:20;100882.38;;;-6.83;100.00
70971;BME280;58632;51.718;19.446;2023-03-01T01:56:50;100881.73;;;-6.90;100.00
70971;BME280;58632;51.718;19.446;2023-03-01T01:59:18;100883.02;;;-6.94;100.00
70971;BME280;58632;51.718;19.446;2023-03-01T02:01:44;100885.27;;;-6.97;100.00
70971;BME280;58632;51.718;19.446;2023-03-01T02:04:10;100884.52;;;-6.97;100.00
70971;BME280;58632;51.718;19.446;2023-03-01T02:06:55;100879.45;;;-6.96;100.00
70971;BME280;58632;51.718;19.446;2023-03-01T02:09:23;100877.39;;;-6.99;100.00
70971;BME280;58632;51.718;19.446;2023-03-01T02:11:48;100880.57;;;-6.98;100.00
70971;BME280;58632;51.718;19.446;2023-03-01T02:14:15;100881.33;;;-6.89;100.00
70971;BME280;58632;51.718;19.446;2023-03-01T02:16:41;100875.70;;;-6.79;100.00
70971;BME280;58632;51.718;19.446;2023-03-01T02:19:07;100867.23;;;-6.70;100.00
70971;BME280;58632;51.718;19.446;2023-03-01T02:21:53;100865.59;;;-6.61;100.00
70971;BME280;58632;51.718;19.446;2023-03-01T02:24:25;100851.84;;;-6.55;100.00
70971;BME280;58632;51.718;19.446;2023-03-01T02:26:55;100844.48;;;-6.51;100.00
70971;BME280;58632;51.718;19.446;2023-03-01T02:29:22;100846.63;;;-6.47;100.00
70971;BME280;58632;51.718;19.446;2023-03-01T02:31:47;100846.80;;;-6.42;100.00
70971;BME280;58632;51.718;19.446;2023-03-01T02:34:18;100845.34;;;-6.41;100.00
70971;BME280;58632;51.718;19.446;2023-03-01T02:39:11;100845.66;;;-6.42;100.00
70971;BME280;58632;51.718;19.446;2023-03-01T02:41:40;100837.88;;;-6.44;100.00
70971;BME280;58632;51.718;19.446;2023-03-01T02:44:07;100841.55;;;-6.46;100.00
70971;BME280;58632;51.718;19.446;2023-03-01T02:46:33;100842.34;;;-6.51;100.00
70971;BME280;58632;51.718;19.446;2023-03-01T02:48:59;100834.60;;;-6.59;100.00
70971;BME280;58632;51.718;19.446;2023-03-01T02:51:27;100843.80;;;-6.67;100.00
70971;BME280;58632;51.718;19.446;2023-03-01T02:56:24;100836.75;;;-6.89;100.00
70971;BME280;58632;51.718;19.446;2023-03-01T02:58:50;100834.60;;;-7.01;100.00
70971;BME280;58632;51.718;19.446;2023-03-01T03:01:19;100838.11;;;-7.10;100.00
70971;BME280;58632;51.718;19.446;2023-03-01T03:03:45;100835.05;;;-7.20;100.00
70971;BME280;58632;51.718;19.446;2023-03-01T03:06:11;100837.38;;;-7.25;100.00
70971;BME280;58632;51.718;19.446;2023-03-01T03:08:36;100840.59;;;-7.26;100.00
70971;BME280;58632;51.718;19.446;2023-03-01T03:11:02;100845.34;;;-7.26;100.00
70971;BME280;58632;51.718;19.446;2023-03-01T03:13:28;100839.09;;;-7.27;100.00
70971;BME280;58632;51.718;19.446;2023-03-01T03:15:54;100835.27;;;-7.23;100.00
70971;BME280;58632;51.718;19.446;2023-03-01T03:18:19;100834.65;;;-7.21;100.00
70971;BME280;58632;51.718;19.446;2023-03-01T03:20:45;100832.94;;;-7.15;100.00
70971;BME280;58632;51.718;19.446;2023-03-01T03:23:11;100834.10;;;-7.09;100.00
70971;BME280;58632;51.718;19.446;2023-03-01T03:25:36;100831.31;;;-6.97;100.00
70971;BME280;58632;51.718;19.446;2023-03-01T03:28:03;100829.94;;;-6.87;100.00
70971;BME280;58632;51.718;19.446;2023-03-01T03:30:35;100827.57;;;-6.80;100.00
70971;BME280;58632;51.718;19.446;2023-03-01T03:33:00;100827.90;;;-6.71;100.00
70971;BME280;58632;51.718;19.446;2023-03-01T03:35:31;100825.96;;;-6.64;100.00
70971;BME280;58632;51.718;19.446;2023-03-01T03:37:57;100829.52;;;-6.61;100.00
70971;BME280;58632;51.718;19.446;2023-03-01T03:40:30;100832.48;;;-6.57;100.00
70971;BME280;58632;51.718;19.446;2023-03-01T03:42:56;100835.77;;;-6.63;100.00
70971;BME280;58632;51.718;19.446;2023-03-01T03:45:21;100840.59;;;-6.70;100.00
70971;BME280;58632;51.718;19.446;2023-03-01T03:47:47;100836.64;;;-6.79;100.00
70971;BME280;58632;51.718;19.446;2023-03-01T03:50:13;100837.23;;;-6.87;100.00
70971;BME280;58632;51.718;19.446;2023-03-01T03:52:39;100836.81;;;-6.95;100.00
70971;BME280;58632;51.718;19.446;2023-03-01T03:55:05;100836.43;;;-7.04;100.00
70971;BME280;58632;51.718;19.446;2023-03-01T03:57:38;100835.38;;;-7.12;100.00
70971;BME280;58632;51.718;19.446;2023-03-01T04:00:04;100837.21;;;-7.20;100.00
70971;BME280;58632;51.718;19.446;2023-03-01T04:02:40;100836.99;;;-7.26;100.00
70971;BME280;58632;51.718;19.446;2023-03-01T04:05:06;100839.38;;;-7.30;100.00
70971;BME280;58632;51.718;19.446;2023-03-01T04:07:33;100838.07;;;-7.32;100.00
70971;BME280;58632;51.718;19.446;2023-03-01T04:09:59;100833.03;;;-7.34;100.00
70971;BME280;58632;51.718;19.446;2023-03-01T04:12:25;100831.04;;;-7.34;100.00
70971;BME280;58632;51.718;19.446;2023-03-01T04:14:50;100836.36;;;-7.34;100.00
70971;BME280;58632;51.718;19.446;2023-03-01T04:17:16;100837.05;;;-7.34;100.00
70971;BME280;58632;51.718;19.446;2023-03-01T04:19:41;100841.90;;;-7.27;100.00
70971;BME280;58632;51.718;19.446;2023-03-01T04:22:09;100836.86;;;-7.21;100.00
70971;BME280;58632;51.718;19.446;2023-03-01T04:24:36;100835.48;;;-7.16;100.00
70971;BME280;58632;51.718;19.446;2023-03-01T04:27:02;100835.20;;;-7.10;100.00
70971;BME280;58632;51.718;19.446;2023-03-01T04:29:27;100834.83;;;-7.04;100.00
70971;BME280;58632;51.718;19.446;2023-03-01T04:31:53;100840.63;;;-7.01;100.00
70971;BME280;58632;51.718;19.446;2023-03-01T04:34:19;100836.04;;;-6.93;100.00
70971;BME280;58632;51.718;19.446;2023-03-01T04:36:44;100840.29;;;-6.86;100.00
70971;BME280;58632;51.718;19.446;2023-03-01T04:39:10;100833.91;;;-6.82;100.00
70971;BME280;58632;51.718;19.446;2023-03-01T04:41:38;100829.55;;;-6.79;100.00
70971;BME280;58632;51.718;19.446;2023-03-01T04:44:04;100828.49;;;-6.85;100.00
70971;BME280;58632;51.718;19.446;2023-03-01T04:46:30;100825.38;;;-6.88;100.00
70971;BME280;58632;51.718;19.446;2023-03-01T04:48:55;100821.89;;;-6.88;100.00
70971;BME280;58632;51.718;19.446;2023-03-01T04:51:21;100822.04;;;-6.89;100.00
70971;BME280;58632;51.718;19.446;2023-03-01T04:53:47;100823.81;;;-6.94;100.00
70971;BME280;58632;51.718;19.446;2023-03-01T04:56:12;100817.37;;;-7.02;100.00
70971;BME280;58632;51.718;19.446;2023-03-01T04:58:39;100818.20;;;-7.09;100.00
70971;BME280;58632;51.718;19.446;2023-03-01T05:01:08;100823.90;;;-7.17;100.00
70971;BME280;58632;51.718;19.446;2023-03-01T05:03:40;100820.11;;;-7.26;100.00
70971;BME280;58632;51.718;19.446;2023-03-01T05:06:05;100815.27;;;-7.34;100.00
70971;BME280;58632;51.718;19.446;2023-03-01T05:08:31;100810.73;;;-7.41;100.00
70971;BME280;58632;51.718;19.446;2023-03-01T05:10:59;100809.41;;;-7.45;100.00
70971;BME280;58632;51.718;19.446;2023-03-01T05:13:25;100816.38;;;-7.47;100.00
70971;BME280;58632;51.718;19.446;2023-03-01T05:15:54;100812.83;;;-7.45;100.00
70971;BME280;58632;51.718;19.446;2023-03-01T05:18:20;100811.77;;;-7.41;100.00
70971;BME280;58632;51.718;19.446;2023-03-01T05:20:45;100814.73;;;-7.34;100.00
70971;BME280;58632;51.718;19.446;2023-03-01T05:23:12;100814.64;;;-7.30;100.00
70971;BME280;58632;51.718;19.446;2023-03-01T05:25:38;100804.70;;;-7.23;100.00
70971;BME280;58632;51.718;19.446;2023-03-01T05:28:06;100804.58;;;-7.17;100.00
70971;BME280;58632;51.718;19.446;2023-03-01T05:30:32;100808.73;;;-7.18;100.00
70971;BME280;58632;51.718;19.446;2023-03-01T05:32:57;100808.26;;;-7.15;100.00
70971;BME280;58632;51.718;19.446;2023-03-01T05:35:23;100813.46;;;-7.11;100.00
70971;BME280;58632;51.718;19.446;2023-03-01T05:37:49;100820.54;;;-7.09;100.00
70971;BME280;58632;51.718;19.446;2023-03-01T05:40:17;100819.27;;;-7.08;100.00
70971;BME280;58632;51.718;19.446;2023-03-01T05:42:43;100814.84;;;-7.05;100.00
70971;BME280;58632;51.718;19.446;2023-03-01T05:45:09;100804.35;;;-7.05;100.00
70971;BME280;58632;51.718;19.446;2023-03-01T05:47:35;100801.69;;;-7.05;100.00
70971;BME280;58632;51.718;19.446;2023-03-01T05:50:01;100799.11;;;-7.02;100.00
70971;BME280;58632;51.718;19.446;2023-03-01T05:52:27;100794.55;;;-7.00;100.00
70971;BME280;58632;51.718;19.446;2023-03-01T05:54:52;100789.98;;;-6.97;100.00
70971;BME280;58632;51.718;19.446;2023-03-01T05:57:18;100788.69;;;-6.95;100.00
70971;BME280;58632;51.718;19.446;2023-03-01T05:59:45;100781.73;;;-6.89;100.00
70971;BME280;58632;51.718;19.446;2023-03-01T06:02:10;100782.70;;;-6.80;100.00
70971;BME280;58632;51.718;19.446;2023-03-01T06:04:36;100787.96;;;-6.64;100.00
70971;BME280;58632;51.718;19.446;2023-03-01T06:07:01;100787.95;;;-6.43;100.00
70971;BME280;58632;51.718;19.446;2023-03-01T06:09:27;100780.48;;;-6.20;100.00
70971;BME280;58632;51.718;19.446;2023-03-01T06:11:53;100778.14;;;-6.01;100.00
70971;BME280;58632;51.718;19.446;2023-03-01T06:14:18;100779.43;;;-5.88;100.00
70971;BME280;58632;51.718;19.446;2023-03-01T06:16:45;100780.69;;;-5.73;100.00
70971;BME280;58632;51.718;19.446;2023-03-01T06:19:11;100777.27;;;-5.48;100.00
70971;BME280;58632;51.718;19.446;2023-03-01T06:21:37;100780.33;;;-5.23;100.00
70971;BME280;58632;51.718;19.446;2023-03-01T06:24:02;100780.63;;;-4.94;100.00
70971;BME280;58632;51.718;19.446;2023-03-01T06:26:28;100781.48;;;-4.66;100.00
70971;BME280;58632;51.718;19.446;2023-03-01T06:28:54;100787.58;;;-4.40;100.00
70971;BME280;58632;51.718;19.446;2023-03-01T06:31:19;100790.81;;;-4.13;100.00
70971;BME280;58632;51.718;19.446;2023-03-01T06:33:45;100792.52;;;-3.91;100.00
70971;BME280;58632;51.718;19.446;2023-03-01T06:36:11;100790.84;;;-3.66;100.00
70971;BME280;58632;51.718;19.446;2023-03-01T06:38:36;100792.72;;;-3.45;100.00
70971;BME280;58632;51.718;19.446;2023-03-01T06:41:02;100793.71;;;-3.24;100.00
70971;BME280;58632;51.718;19.446;2023-03-01T06:43:27;100797.80;;;-3.08;100.00
70971;BME280;58632;51.718;19.446;2023-03-01T06:45:53;100791.50;;;-2.85;100.00
70971;BME280;58632;51.718;19.446;2023-03-01T06:48:18;100799.50;;;-2.66;100.00
70971;BME280;58632;51.718;19.446;2023-03-01T06:50:44;100805.41;;;-2.51;100.00
70971;BME280;58632;51.718;19.446;2023-03-01T06:53:09;100808.31;;;-2.33;100.00
70971;BME280;58632;51.718;19.446;2023-03-01T06:55:35;100810.73;;;-2.16;100.00
70971;BME280;58632;51.718;19.446;2023-03-01T06:58:01;100813.29;;;-2.04;100.00
70971;BME280;58632;51.718;19.446;2023-03-01T07:00:28;100819.19;;;-1.96;100.00
70971;BME280;58632;51.718;19.446;2023-03-01T07:02:54;100816.88;;;-1.87;100.00
70971;BME280;58632;51.718;19.446;2023-03-01T07:05:20;100815.94;;;-1.76;100.00
70971;BME280;58632;51.718;19.446;2023-03-01T07:07:45;100813.16;;;-1.59;100.00
70971;BME280;58632;51.718;19.446;2023-03-01T07:10:11;100811.36;;;-1.44;100.00
70971;BME280;58632;51.718;19.446;2023-03-01T07:12:37;100806.08;;;-1.28;100.00
70971;BME280;58632;51.718;19.446;2023-03-01T07:15:03;100806.55;;;-1.10;100.00
70971;BME280;58632;51.718;19.446;2023-03-01T07:17:28;100809.18;;;-0.98;100.00
70971;BME280;58632;51.718;19.446;2023-03-01T07:19:54;100813.93;;;-0.80;100.00
70971;BME280;58632;51.718;19.446;2023-03-01T07:22:19;100817.02;;;-0.62;100.00
70971;BME280;58632;51.718;19.446;2023-03-01T07:24:45;100807.11;;;-0.48;100.00
70971;BME280;58632;51.718;19.446;2023-03-01T07:27:11;100801.48;;;-0.30;100.00
70971;BME280;58632;51.718;19.446;2023-03-01T07:29:37;100796.02;;;-0.07;100.00
70971;BME280;58632;51.718;19.446;2023-03-01T07:32:03;100801.36;;;0.18;100.00
70971;BME280;58632;51.718;19.446;2023-03-01T07:34:28;100798.70;;;0.39;100.00
70971;BME280;58632;51.718;19.446;2023-03-01T07:36:54;100796.92;;;0.48;100.00
70971;BME280;58632;51.718;19.446;2023-03-01T07:39:19;100801.08;;;0.59;100.00
70971;BME280;58632;51.718;19.446;2023-03-01T07:41:45;100798.55;;;0.72;100.00
70971;BME280;58632;51.718;19.446;2023-03-01T07:44:10;100801.92;;;0.91;100.00
70971;BME280;58632;51.718;19.446;2023-03-01T07:46:36;100802.77;;;1.02;100.00
70971;BME280;58632;51.718;19.446;2023-03-01T07:49:02;100796.35;;;1.16;100.00
70971;BME280;58632;51.718;19.446;2023-03-01T07:51:27;100793.20;;;1.37;100.00
70971;BME280;58632;51.718;19.446;2023-03-01T07:53:53;100797.14;;;1.56;100.00
70971;BME280;58632;51.718;19.446;2023-03-01T07:56:19;100791.52;;;1.66;100.00
70971;BME280;58632;51.718;19.446;2023-03-01T07:58:46;100786.55;;;1.71;100.00
70971;BME280;58632;51.718;19.446;2023-03-01T08:01:13;100791.35;;;1.77;100.00
70971;BME280;58632;51.718;19.446;2023-03-01T08:03:39;100792.27;;;1.80;100.00
70971;BME280;58632;51.718;19.446;2023-03-01T08:06:06;100792.04;;;1.87;100.00
70971;BME280;58632;51.718;19.446;2023-03-01T08:08:32;100790.73;;;2.02;100.00
70971;BME280;58632;51.718;19.446;2023-03-01T08:10:58;100791.67;;;2.18;100.00
70971;BME280;58632;51.718;19.446;2023-03-01T08:13:24;100790.73;;;2.32;100.00
70971;BME280;58632;51.718;19.446;2023-03-01T08:15:49;100795.95;;;2.51;100.00
70971;BME280;58632;51.718;19.446;2023-03-01T08:18:16;100801.48;;;2.68;100.00
70971;BME280;58632;51.718;19.446;2023-03-01T08:20:41;100793.17;;;2.88;100.00
70971;BME280;58632;51.718;19.446;2023-03-01T08:23:07;100790.92;;;2.91;100.00
70971;BME280;58632;51.718;19.446;2023-03-01T08:25:33;100788.80;;;2.96;100.00
70971;BME280;58632;51.718;19.446;2023-03-01T08:27:58;100789.80;;;3.05;100.00
70971;BME280;58632;51.718;19.446;2023-03-01T08:30:24;100793.13;;;3.15;100.00
70971;BME280;58632;51.718;19.446;2023-03-01T08:32:50;100789.17;;;3.29;100.00
70971;BME280;58632;51.718;19.446;2023-03-01T08:35:16;100782.95;;;3.32;100.00
70971;BME280;58632;51.718;19.446;2023-03-01T08:37:41;100777.73;;;3.39;100.00
70971;BME280;58632;51.718;19.446;2023-03-01T08:40:07;100780.77;;;3.47;100.00
70971;BME280;58632;51.718;19.446;2023-03-01T08:42:35;100784.77;;;3.52;100.00
70971;BME280;58632;51.718;19.446;2023-03-01T08:45:01;100781.70;;;3.57;100.00
70971;BME280;58632;51.718;19.446;2023-03-01T08:47:26;100780.11;;;3.55;100.00
70971;BME280;58632;51.718;19.446;2023-03-01T08:49:52;100779.48;;;3.57;100.00
70971;BME280;58632;51.718;19.446;2023-03-01T08:52:18;100780.71;;;3.64;100.00
70971;BME280;58632;51.718;19.446;2023-03-01T08:54:44;100775.93;;;3.72;100.00
70971;BME280;58632;51.718;19.446;2023-03-01T08:57:09;100773.40;;;3.83;100.00
70971;BME280;58632;51.718;19.446;2023-03-01T08:59:35;100774.29;;;3.93;100.00
70971;BME280;58632;51.718;19.446;2023-03-01T09:02:03;100768.20;;;3.97;100.00
70971;BME280;58632;51.718;19.446;2023-03-01T09:04:28;100761.18;;;4.04;100.00
70971;BME280;58632;51.718;19.446;2023-03-01T09:06:54;100757.42;;;4.07;100.00
70971;BME280;58632;51.718;19.446;2023-03-01T09:09:19;100751.64;;;4.03;100.00
70971;BME280;58632;51.718;19.446;2023-03-01T09:11:45;100748.75;;;4.02;100.00
70971;BME280;58632;51.718;19.446;2023-03-01T09:14:11;100740.84;;;4.03;100.00
70971;BME280;58632;51.718;19.446;2023-03-01T09:16:37;100741.20;;;4.06;100.00
70971;BME280;58632;51.718;19.446;2023-03-01T09:19:03;100738.19;;;4.15;100.00
70971;BME280;58632;51.718;19.446;2023-03-01T09:21:28;100741.42;;;4.17;100.00
70971;BME280;58632;51.718;19.446;2023-03-01T09:23:55;100749.80;;;4.10;100.00
70971;BME280;58632;51.718;19.446;2023-03-01T09:26:21;100753.55;;;4.10;100.00
70971;BME280;58632;51.718;19.446;2023-03-01T09:28:47;100754.47;;;4.15;100.00
70971;BME280;58632;51.718;19.446;2023-03-01T09:31:14;100757.02;;;4.20;100.00
70971;BME280;58632;51.718;19.446;2023-03-01T09:33:40;100755.10;;;4.30;100.00
70971;BME280;58632;51.718;19.446;2023-03-01T09:36:07;100751.73;;;4.35;100.00
70971;BME280;58632;51.718;19.446;2023-03-01T09:38:33;100751.69;;;4.41;100.00
70971;BME280;58632;51.718;19.446;2023-03-01T09:40:59;100752.48;;;4.46;99.51
70971;BME280;58632;51.718;19.446;2023-03-01T09:43:45;100751.00;;;4.43;98.85
70971;BME280;58632;51.718;19.446;2023-03-01T09:46:12;100755.19;;;4.50;99.65
70971;BME280;58632;51.718;19.446;2023-03-01T09:48:46;100759.44;;;4.59;100.00
70971;BME280;58632;51.718;19.446;2023-03-01T09:51:30;100759.84;;;4.62;97.58
70971;BME280;58632;51.718;19.446;2023-03-01T09:53:56;100760.68;;;4.64;99.57
70971;BME280;58632;51.718;19.446;2023-03-01T10:01:38;100758.75;;;4.89;97.70
70971;BME280;58632;51.718;19.446;2023-03-01T10:04:28;100754.67;;;4.94;98.72
70971;BME280;58632;51.718;19.446;2023-03-01T10:06:58;100756.40;;;5.02;97.39
70971;BME280;58632;51.718;19.446;2023-03-01T10:09:28;100752.22;;;5.01;87.77
70971;BME280;58632;51.718;19.446;2023-03-01T10:11:57;100746.92;;;4.97;86.86
70971;BME280;58632;51.718;19.446;2023-03-01T10:16:53;100740.50;;;4.87;84.39
70971;BME280;58632;51.718;19.446;2023-03-01T10:19:24;100739.79;;;4.86;86.03
70971;BME280;58632;51.718;19.446;2023-03-01T10:21:52;100730.74;;;4.81;83.16
70971;BME280;58632;51.718;19.446;2023-03-01T10:24:18;100730.53;;;4.82;86.30
70971;BME280;58632;51.718;19.446;2023-03-01T10:26:56;100729.02;;;4.82;83.72
70971;BME280;58632;51.718;19.446;2023-03-01T10:29:37;100727.14;;;4.79;83.86
70971;BME280;58632;51.718;19.446;2023-03-01T10:32:04;100728.70;;;4.77;82.12
70971;BME280;58632;51.718;19.446;2023-03-01T10:34:33;100724.32;;;4.78;85.08
70971;BME280;58632;51.718;19.446;2023-03-01T10:37:13;100724.00;;;4.81;80.56
70971;BME280;58632;51.718;19.446;2023-03-01T10:42:27;100716.95;;;4.88;83.33
70971;BME280;58632;51.718;19.446;2023-03-01T10:44:53;100716.86;;;4.93;83.48
70971;BME280;58632;51.718;19.446;2023-03-01T10:47:23;100715.94;;;5.00;85.49
70971;BME280;58632;51.718;19.446;2023-03-01T10:49:51;100711.31;;;5.07;82.99
70971;BME280;58632;51.718;19.446;2023-03-01T10:52:18;100714.07;;;5.05;78.54
70971;BME280;58632;51.718;19.446;2023-03-01T10:54:50;100712.84;;;5.07;80.55
70971;BME280;58632;51.718;19.446;2023-03-01T11:00:10;100707.77;;;5.16;72.06
70971;BME280;58632;51.718;19.446;2023-03-01T11:02:38;100710.89;;;5.19;70.16
70971;BME280;58632;51.718;19.446;2023-03-01T11:10:35;100693.04;;;5.47;75.21
70971;BME280;58632;51.718;19.446;2023-03-01T11:13:17;100681.93;;;5.53;71.53
70971;BME280;58632;51.718;19.446;2023-03-01T11:15:43;100683.30;;;5.54;69.70
70971;BME280;58632;51.718;19.446;2023-03-01T11:18:31;100684.61;;;5.60;72.53
70971;BME280;58632;51.718;19.446;2023-03-01T11:20:57;100677.02;;;5.65;74.42
70971;BME280;58632;51.718;19.446;2023-03-01T11:23:24;100672.85;;;5.71;73.26
70971;BME280;58632;51.718;19.446;2023-03-01T11:25:55;100670.75;;;5.78;74.09
70971;BME280;58632;51.718;19.446;2023-03-01T11:28:21;100669.17;;;5.78;70.13
70971;BME280;58632;51.718;19.446;2023-03-01T11:30:58;100664.80;;;5.71;68.45
70971;BME280;58632;51.718;19.446;2023-03-01T11:35:57;100661.42;;;5.66;66.01
70971;BME280;58632;51.718;19.446;2023-03-01T11:38:27;100656.57;;;5.61;59.83
70971;BME280;58632;51.718;19.446;2023-03-01T11:51:38;100652.73;;;5.33;62.09
70971;BME280;58632;51.718;19.446;2023-03-01T11:56:43;100657.84;;;5.33;60.50
70971;BME280;58632;51.718;19.446;2023-03-01T12:05:05;100645.51;;;5.34;60.26
70971;BME280;58632;51.718;19.446;2023-03-01T12:07:46;100640.88;;;5.40;62.41
70971;BME280;58632;51.718;19.446;2023-03-01T12:10:26;100638.70;;;5.43;58.43
70971;BME280;58632;51.718;19.446;2023-03-01T12:18:23;100624.69;;;5.48;58.79
70971;BME280;58632;51.718;19.446;2023-03-01T12:21:02;100629.52;;;5.46;59.66
70971;BME280;58632;51.718;19.446;2023-03-01T12:23:39;100631.81;;;5.47;59.10
70971;BME280;58632;51.718;19.446;2023-03-01T12:29:08;100626.32;;;5.49;57.98
70971;BME280;58632;51.718;19.446;2023-03-01T12:32:26;100623.44;;;5.48;56.77
70971;BME280;58632;51.718;19.446;2023-03-01T12:35:01;100620.84;;;5.47;59.05
70971;BME280;58632;51.718;19.446;2023-03-01T12:40:03;100608.73;;;5.49;62.78
70971;BME280;58632;51.718;19.446;2023-03-01T12:42:41;100601.08;;;5.53;64.10
70971;BME280;58632;51.718;19.446;2023-03-01T12:45:38;100594.84;;;5.56;63.33
70971;BME280;58632;51.718;19.446;2023-03-01T12:50:37;100586.64;;;5.61;56.75
70971;BME280;58632;51.718;19.446;2023-03-01T12:53:04;100585.66;;;5.65;57.47
70971;BME280;58632;51.718;19.446;2023-03-01T12:55:33;100584.14;;;5.66;56.84
70971;BME280;58632;51.718;19.446;2023-03-01T13:00:35;100578.71;;;5.70;59.26
70971;BME280;58632;51.718;19.446;2023-03-01T13:03:18;100575.23;;;5.73;52.86
70971;BME280;58632;51.718;19.446;2023-03-01T13:06:04;100569.80;;;5.76;54.86
70971;BME280;58632;51.718;19.446;2023-03-01T13:08:52;100569.75;;;5.78;55.79
70971;BME280;58632;51.718;19.446;2023-03-01T13:11:21;100571.38;;;5.77;56.32
70971;BME280;58632;51.718;19.446;2023-03-01T13:13:47;100576.98;;;5.78;56.15
70971;BME280;58632;51.718;19.446;2023-03-01T13:19:15;100574.33;;;5.79;59.54
70971;BME280;58632;51.718;19.446;2023-03-01T13:21:40;100575.95;;;5.81;60.71
70971;BME280;58632;51.718;19.446;2023-03-01T13:24:23;100575.36;;;5.81;61.18
70971;BME280;58632;51.718;19.446;2023-03-01T13:32:23;100572.80;;;5.78;64.46
70971;BME280;58632;51.718;19.446;2023-03-01T13:34:50;100571.81;;;5.79;63.33
70971;BME280;58632;51.718;19.446;2023-03-01T13:37:19;100574.48;;;5.80;65.98
70971;BME280;58632;51.718;19.446;2023-03-01T13:39:45;100574.76;;;5.80;63.36
70971;BME280;58632;51.718;19.446;2023-03-01T13:42:31;100576.77;;;5.78;59.07
70971;BME280;58632;51.718;19.446;2023-03-01T13:44:57;100578.08;;;5.79;57.60
70971;BME280;58632;51.718;19.446;2023-03-01T13:47:22;100575.63;;;5.79;55.97
70971;BME280;58632;51.718;19.446;2023-03-01T13:49:53;100574.48;;;5.76;55.45
70971;BME280;58632;51.718;19.446;2023-03-01T13:55:31;100578.18;;;5.78;59.63